sensor_id;sensor_type;location;lat;lon;timestamp;temperature;humidity
2190;DHT22;1101;51.056;7.262;2022-12-19T00:01:56;-0.20;99.90
2190;DHT22;1101;51.056;7.262;2022-12-19T00:04:24;-0.20;99.90
2190;DHT22;1101;51.056;7.262;2022-12-19T00:06:52;-0.20;99.90
2190;DHT22;1101;51.056;7.262;2022-12-19T00:09:20;-0.20;99.90
2190;DHT22;1101;51.056;7.262;2022-12-19T00:11:48;-0.10;99.90
2190;DHT22;1101;51.056;7.262;2022-12-19T00:14:17;-0.10;99.90
2190;DHT22;1101;51.056;7.262;2022-12-19T00:16:45;-0.10;99.90
2190;DHT22;1101;51.056;7.262;2022-12-19T00:19:13;-0.10;99.90
2190;DHT22;1101;51.056;7.262;2022-12-19T00:21:42;-0.10;99.90
2190;DHT22;1101;51.056;7.262;2022-12-19T00:24:10;-0.10;99.90
2190;DHT22;1101;51.056;7.262;2022-12-19T00:26:47;-0.10;99.90
2190;DHT22;1101;51.056;7.262;2022-12-19T00:29:17;-0.10;99.90
2190;DHT22;1101;51.056;7.262;2022-12-19T00:31:45;-0.10;99.90
2190;DHT22;1101;51.056;7.262;2022-12-19T00:34:13;-0.10;99.90
2190;DHT22;1101;51.056;7.262;2022-12-19T00:36:41;0.00;99.90
2190;DHT22;1101;51.056;7.262;2022-12-19T00:39:09;0.00;99.90
2190;DHT22;1101;51.056;7.262;2022-12-19T00:41:39;0.00;99.90
2190;DHT22;1101;51.056;7.262;2022-12-19T00:44:10;0.00;99.90
2190;DHT22;1101;51.056;7.262;2022-12-19T00:46:41;0.00;99.90
2190;DHT22;1101;51.056;7.262;2022-12-19T00:49:15;0.00;99.90
2190;DHT22;1101;51.056;7.262;2022-12-19T00:51:43;0.00;99.90
2190;DHT22;1101;51.056;7.262;2022-12-19T00:54:11;0.00;99.90
2190;DHT22;1101;51.056;7.262;2022-12-19T00:56:40;0.00;99.90
2190;DHT22;1101;51.056;7.262;2022-12-19T00:59:08;0.00;99.90
2190;DHT22;1101;51.056;7.262;2022-12-19T01:01:38;0.00;99.90
2190;DHT22;1101;51.056;7.262;2022-12-19T01:04:11;0.10;99.90
2190;DHT22;1101;51.056;7.262;2022-12-19T01:06:58;0.10;99.90
2190;DHT22;1101;51.056;7.262;2022-12-19T01:09:29;0.10;99.90
2190;DHT22;1101;51.056;7.262;2022-12-19T01:11:57;0.10;99.90
2190;DHT22;1101;51.056;7.262;2022-12-19T01:14:42;0.10;99.90
2190;DHT22;1101;51.056;7.262;2022-12-19T01:17:10;0.10;99.90
2190;DHT22;1101;51.056;7.262;2022-12-19T01:19:40;0.10;99.90
2190;DHT22;1101;51.056;7.262;2022-12-19T01:22:10;0.20;99.90
2190;DHT22;1101;51.056;7.262;2022-12-19T01:24:38;0.20;99.90
2190;DHT22;1101;51.056;7.262;2022-12-19T01:27:07;0.20;99.90
2190;DHT22;1101;51.056;7.262;2022-12-19T01:29:34;0.20;99.90
2190;DHT22;1101;51.056;7.262;2022-12-19T01:32:17;0.20;99.90
2190;DHT22;1101;51.056;7.262;2022-12-19T01:34:46;0.20;99.90
2190;DHT22;1101;51.056;7.262;2022-12-19T01:37:15;0.30;99.90
2190;DHT22;1101;51.056;7.262;2022-12-19T01:39:43;0.30;99.90
2190;DHT22;1101;51.056;7.262;2022-12-19T01:42:13;0.30;99.90
2190;DHT22;1101;51.056;7.262;2022-12-19T01:48:06;0.40;99.90
2190;DHT22;1101;51.056;7.262;2022-12-19T01:50:42;0.40;99.90
2190;DHT22;1101;51.056;7.262;2022-12-19T01:53:33;0.40;99.90
2190;DHT22;1101;51.056;7.262;2022-12-19T01:56:16;0.40;99.90
2190;DHT22;1101;51.056;7.262;2022-12-19T01:58:44;0.40;99.90
2190;DHT22;1101;51.056;7.262;2022-12-19T02:01:13;0.50;99.90
2190;DHT22;1101;51.056;7.262;2022-12-19T02:03:41;0.50;99.90
2190;DHT22;1101;51.056;7.262;2022-12-19T02:06:12;0.50;99.90
2190;DHT22;1101;51.056;7.262;2022-12-19T02:08:43;0.50;99.90
2190;DHT22;1101;51.056;7.262;2022-12-19T02:11:12;0.50;99.90
2190;DHT22;1101;51.056;7.262;2022-12-19T02:13:40;0.50;99.90
2190;DHT22;1101;51.056;7.262;2022-12-19T02:16:18;0.50;99.90
2190;DHT22;1101;51.056;7.262;2022-12-19T02:19:00;0.50;99.90
2190;DHT22;1101;51.056;7.262;2022-12-19T02:21:42;0.50;99.90
2190;DHT22;1101;51.056;7.262;2022-12-19T02:27:34;0.60;99.90
2190;DHT22;1101;51.056;7.262;2022-12-19T02:30:10;0.60;99.90
2190;DHT22;1101;51.056;7.262;2022-12-19T02:32:54;0.60;99.90
2190;DHT22;1101;51.056;7.262;2022-12-19T02:35:31;0.60;99.90
2190;DHT22;1101;51.056;7.262;2022-12-19T02:38:08;0.60;99.90
2190;DHT22;1101;51.056;7.262;2022-12-19T02:40:41;0.60;99.90
2190;DHT22;1101;51.056;7.262;2022-12-19T02:43:14;0.70;99.90
2190;DHT22;1101;51.056;7.262;2022-12-19T02:45:44;0.70;99.90
2190;DHT22;1101;51.056;7.262;2022-12-19T02:48:16;0.70;99.90
2190;DHT22;1101;51.056;7.262;2022-12-19T02:50:46;0.70;99.90
2190;DHT22;1101;51.056;7.262;2022-12-19T02:53:16;0.70;99.90
2190;DHT22;1101;51.056;7.262;2022-12-19T02:56:04;0.70;99.90
2190;DHT22;1101;51.056;7.262;2022-12-19T02:58:45;0.70;99.90
2190;DHT22;1101;51.056;7.262;2022-12-19T03:01:21;0.80;99.90
2190;DHT22;1101;51.056;7.262;2022-12-19T03:04:02;0.80;99.90
2190;DHT22;1101;51.056;7.262;2022-12-19T03:06:37;0.80;99.90
2190;DHT22;1101;51.056;7.262;2022-12-19T03:09:11;0.80;99.90
2190;DHT22;1101;51.056;7.262;2022-12-19T03:11:41;0.80;99.90
2190;DHT22;1101;51.056;7.262;2022-12-19T03:14:12;0.80;99.90
2190;DHT22;1101;51.056;7.262;2022-12-19T03:16:41;0.90;99.90
2190;DHT22;1101;51.056;7.262;2022-12-19T03:19:12;0.80;99.90
2190;DHT22;1101;51.056;7.262;2022-12-19T03:21:43;0.90;99.90
2190;DHT22;1101;51.056;7.262;2022-12-19T03:24:12;0.90;99.90
2190;DHT22;1101;51.056;7.262;2022-12-19T03:26:45;0.90;99.90
2190;DHT22;1101;51.056;7.262;2022-12-19T03:29:17;0.90;99.90
2190;DHT22;1101;51.056;7.262;2022-12-19T03:31:48;0.90;99.90
2190;DHT22;1101;51.056;7.262;2022-12-19T03:34:20;0.90;99.90
2190;DHT22;1101;51.056;7.262;2022-12-19T03:36:54;0.90;99.90
2190;DHT22;1101;51.056;7.262;2022-12-19T03:39:24;0.90;99.90
2190;DHT22;1101;51.056;7.262;2022-12-19T03:41:54;0.90;99.90
2190;DHT22;1101;51.056;7.262;2022-12-19T03:44:41;1.00;99.90
2190;DHT22;1101;51.056;7.262;2022-12-19T03:47:13;1.00;99.90
2190;DHT22;1101;51.056;7.262;2022-12-19T03:49:44;1.00;99.90
2190;DHT22;1101;51.056;7.262;2022-12-19T03:52:22;1.00;99.90
2190;DHT22;1101;51.056;7.262;2022-12-19T03:54:57;1.00;99.90
2190;DHT22;1101;51.056;7.262;2022-12-19T03:57:29;1.00;99.90
2190;DHT22;1101;51.056;7.262;2022-12-19T04:00:03;1.00;99.90
2190;DHT22;1101;51.056;7.262;2022-12-19T04:02:34;1.00;99.90
2190;DHT22;1101;51.056;7.262;2022-12-19T04:05:08;1.00;99.90
2190;DHT22;1101;51.056;7.262;2022-12-19T04:07:38;1.00;99.90
2190;DHT22;1101;51.056;7.262;2022-12-19T04:10:10;1.00;99.90
2190;DHT22;1101;51.056;7.262;2022-12-19T04:12:40;1.00;99.90
2190;DHT22;1101;51.056;7.262;2022-12-19T04:15:10;1.00;99.90
2190;DHT22;1101;51.056;7.262;2022-12-19T04:17:41;1.00;99.90
2190;DHT22;1101;51.056;7.262;2022-12-19T04:20:13;1.00;99.90
2190;DHT22;1101;51.056;7.262;2022-12-19T04:22:45;1.00;99.90
2190;DHT22;1101;51.056;7.262;2022-12-19T04:25:17;1.00;99.90
2190;DHT22;1101;51.056;7.262;2022-12-19T04:27:52;1.00;99.90
2190;DHT22;1101;51.056;7.262;2022-12-19T04:30:20;1.00;99.90
2190;DHT22;1101;51.056;7.262;2022-12-19T04:32:49;1.00;99.90
2190;DHT22;1101;51.056;7.262;2022-12-19T04:35:19;1.00;99.90
2190;DHT22;1101;51.056;7.262;2022-12-19T04:37:46;1.00;99.90
2190;DHT22;1101;51.056;7.262;2022-12-19T04:40:14;1.00;99.90
2190;DHT22;1101;51.056;7.262;2022-12-19T04:42:42;1.00;99.90
2190;DHT22;1101;51.056;7.262;2022-12-19T04:45:10;1.00;99.90
2190;DHT22;1101;51.056;7.262;2022-12-19T04:47:39;1.00;99.90
2190;DHT22;1101;51.056;7.262;2022-12-19T04:50:07;1.00;99.90
2190;DHT22;1101;51.056;7.262;2022-12-19T04:52:36;1.00;99.90
2190;DHT22;1101;51.056;7.262;2022-12-19T04:55:05;1.00;99.90
2190;DHT22;1101;51.056;7.262;2022-12-19T04:57:33;1.10;99.90
2190;DHT22;1101;51.056;7.262;2022-12-19T05:00:01;1.10;99.90
2190;DHT22;1101;51.056;7.262;2022-12-19T05:02:32;1.10;99.90
2190;DHT22;1101;51.056;7.262;2022-12-19T05:05:00;1.10;99.90
2190;DHT22;1101;51.056;7.262;2022-12-19T05:07:28;1.10;99.90
2190;DHT22;1101;51.056;7.262;2022-12-19T05:09:57;1.10;99.90
2190;DHT22;1101;51.056;7.262;2022-12-19T05:12:25;1.10;99.90
2190;DHT22;1101;51.056;7.262;2022-12-19T05:14:52;1.10;99.90
2190;DHT22;1101;51.056;7.262;2022-12-19T05:17:20;1.10;99.90
2190;DHT22;1101;51.056;7.262;2022-12-19T05:19:48;1.10;99.90
2190;DHT22;1101;51.056;7.262;2022-12-19T05:22:16;1.10;99.90
2190;DHT22;1101;51.056;7.262;2022-12-19T05:24:43;1.10;99.90
2190;DHT22;1101;51.056;7.262;2022-12-19T05:27:12;1.10;99.90
2190;DHT22;1101;51.056;7.262;2022-12-19T05:29:40;1.10;99.90
2190;DHT22;1101;51.056;7.262;2022-12-19T05:32:08;1.10;99.90
2190;DHT22;1101;51.056;7.262;2022-12-19T05:34:35;1.10;99.90
2190;DHT22;1101;51.056;7.262;2022-12-19T05:37:03;1.10;99.90
2190;DHT22;1101;51.056;7.262;2022-12-19T05:39:31;1.10;99.90
2190;DHT22;1101;51.056;7.262;2022-12-19T05:41:59;1.10;99.90
2190;DHT22;1101;51.056;7.262;2022-12-19T05:44:28;1.10;99.90
2190;DHT22;1101;51.056;7.262;2022-12-19T05:46:56;1.20;99.90
2190;DHT22;1101;51.056;7.262;2022-12-19T05:49:23;1.20;99.90
2190;DHT22;1101;51.056;7.262;2022-12-19T05:51:51;1.20;99.90
2190;DHT22;1101;51.056;7.262;2022-12-19T05:54:19;1.20;99.90
2190;DHT22;1101;51.056;7.262;2022-12-19T05:56:47;1.20;99.90
2190;DHT22;1101;51.056;7.262;2022-12-19T05:59:15;1.20;99.90
2190;DHT22;1101;51.056;7.262;2022-12-19T06:01:44;1.20;99.90
2190;DHT22;1101;51.056;7.262;2022-12-19T06:04:12;1.20;99.90
2190;DHT22;1101;51.056;7.262;2022-12-19T06:06:39;1.20;99.90
2190;DHT22;1101;51.056;7.262;2022-12-19T06:09:07;1.30;99.90
2190;DHT22;1101;51.056;7.262;2022-12-19T06:11:35;1.30;99.90
2190;DHT22;1101;51.056;7.262;2022-12-19T06:14:03;1.30;99.90
2190;DHT22;1101;51.056;7.262;2022-12-19T06:16:30;1.30;99.90
2190;DHT22;1101;51.056;7.262;2022-12-19T06:18:59;1.30;99.90
2190;DHT22;1101;51.056;7.262;2022-12-19T06:21:27;1.30;99.90
2190;DHT22;1101;51.056;7.262;2022-12-19T06:23:55;1.40;99.90
2190;DHT22;1101;51.056;7.262;2022-12-19T06:26:23;1.40;99.90
2190;DHT22;1101;51.056;7.262;2022-12-19T06:28:52;1.40;99.90
2190;DHT22;1101;51.056;7.262;2022-12-19T06:31:21;1.40;99.90
2190;DHT22;1101;51.056;7.262;2022-12-19T06:33:50;1.40;99.90
2190;DHT22;1101;51.056;7.262;2022-12-19T06:36:21;1.40;99.90
2190;DHT22;1101;51.056;7.262;2022-12-19T06:38:50;1.40;99.90
2190;DHT22;1101;51.056;7.262;2022-12-19T06:41:18;1.50;99.90
2190;DHT22;1101;51.056;7.262;2022-12-19T06:44:05;1.50;99.90
2190;DHT22;1101;51.056;7.262;2022-12-19T06:46:34;1.50;99.90
2190;DHT22;1101;51.056;7.262;2022-12-19T06:49:02;1.50;99.90
2190;DHT22;1101;51.056;7.262;2022-12-19T06:51:32;1.50;99.90
2190;DHT22;1101;51.056;7.262;2022-12-19T06:54:00;1.60;99.90
2190;DHT22;1101;51.056;7.262;2022-12-19T06:56:32;1.60;99.90
2190;DHT22;1101;51.056;7.262;2022-12-19T06:59:00;1.60;99.90
2190;DHT22;1101;51.056;7.262;2022-12-19T07:01:38;1.60;99.90
2190;DHT22;1101;51.056;7.262;2022-12-19T07:04:12;1.70;99.90
2190;DHT22;1101;51.056;7.262;2022-12-19T07:06:42;1.70;99.90
2190;DHT22;1101;51.056;7.262;2022-12-19T07:09:14;1.70;99.90
2190;DHT22;1101;51.056;7.262;2022-12-19T07:11:42;1.70;99.90
2190;DHT22;1101;51.056;7.262;2022-12-19T07:14:10;1.70;99.90
2190;DHT22;1101;51.056;7.262;2022-12-19T07:16:39;1.70;99.90
2190;DHT22;1101;51.056;7.262;2022-12-19T07:19:08;1.70;99.90
2190;DHT22;1101;51.056;7.262;2022-12-19T07:21:36;1.80;99.90
2190;DHT22;1101;51.056;7.262;2022-12-19T07:24:07;1.70;99.90
2190;DHT22;1101;51.056;7.262;2022-12-19T07:26:35;1.80;99.90
2190;DHT22;1101;51.056;7.262;2022-12-19T07:29:03;1.80;99.90
2190;DHT22;1101;51.056;7.262;2022-12-19T07:31:33;1.80;99.90
2190;DHT22;1101;51.056;7.262;2022-12-19T07:34:01;1.90;99.90
2190;DHT22;1101;51.056;7.262;2022-12-19T07:36:29;1.90;99.90
2190;DHT22;1101;51.056;7.262;2022-12-19T07:38:57;1.90;99.90
2190;DHT22;1101;51.056;7.262;2022-12-19T07:41:26;1.90;99.90
2190;DHT22;1101;51.056;7.262;2022-12-19T07:43:54;1.90;99.90
2190;DHT22;1101;51.056;7.262;2022-12-19T07:46:21;1.90;99.90
2190;DHT22;1101;51.056;7.262;2022-12-19T07:48:49;1.90;99.90
2190;DHT22;1101;51.056;7.262;2022-12-19T07:51:17;1.90;99.90
2190;DHT22;1101;51.056;7.262;2022-12-19T07:53:45;2.00;99.90
2190;DHT22;1101;51.056;7.262;2022-12-19T07:56:13;2.00;99.90
2190;DHT22;1101;51.056;7.262;2022-12-19T07:58:44;2.00;99.90
2190;DHT22;1101;51.056;7.262;2022-12-19T08:01:12;2.00;99.90
2190;DHT22;1101;51.056;7.262;2022-12-19T08:03:39;2.00;99.90
2190;DHT22;1101;51.056;7.262;2022-12-19T08:06:07;2.00;99.90
2190;DHT22;1101;51.056;7.262;2022-12-19T08:08:35;2.00;99.90
2190;DHT22;1101;51.056;7.262;2022-12-19T08:11:09;2.00;99.90
2190;DHT22;1101;51.056;7.262;2022-12-19T08:13:37;2.10;99.90
2190;DHT22;1101;51.056;7.262;2022-12-19T08:16:13;2.10;99.90
2190;DHT22;1101;51.056;7.262;2022-12-19T08:18:41;2.10;99.90
2190;DHT22;1101;51.056;7.262;2022-12-19T08:21:10;2.10;99.90
2190;DHT22;1101;51.056;7.262;2022-12-19T08:23:38;2.10;99.90
2190;DHT22;1101;51.056;7.262;2022-12-19T08:26:09;2.10;99.90
2190;DHT22;1101;51.056;7.262;2022-12-19T08:28:37;2.20;99.90
2190;DHT22;1101;51.056;7.262;2022-12-19T08:31:06;2.20;99.90
2190;DHT22;1101;51.056;7.262;2022-12-19T08:33:35;2.20;99.90
2190;DHT22;1101;51.056;7.262;2022-12-19T08:36:04;2.20;99.90
2190;DHT22;1101;51.056;7.262;2022-12-19T08:38:32;2.20;99.90
2190;DHT22;1101;51.056;7.262;2022-12-19T08:41:00;2.30;99.90
2190;DHT22;1101;51.056;7.262;2022-12-19T08:43:29;2.30;99.90
2190;DHT22;1101;51.056;7.262;2022-12-19T08:45:57;2.30;99.90
2190;DHT22;1101;51.056;7.262;2022-12-19T08:48:25;2.40;99.90
2190;DHT22;1101;51.056;7.262;2022-12-19T08:50:55;2.40;99.90
2190;DHT22;1101;51.056;7.262;2022-12-19T08:53:24;2.40;99.90
2190;DHT22;1101;51.056;7.262;2022-12-19T08:55:53;2.40;99.90
2190;DHT22;1101;51.056;7.262;2022-12-19T08:58:22;2.50;99.90
2190;DHT22;1101;51.056;7.262;2022-12-19T09:00:49;2.50;99.90
2190;DHT22;1101;51.056;7.262;2022-12-19T09:03:28;2.50;99.90
2190;DHT22;1101;51.056;7.262;2022-12-19T09:06:17;2.50;99.90
2190;DHT22;1101;51.056;7.262;2022-12-19T09:08:45;2.60;99.90
2190;DHT22;1101;51.056;7.262;2022-12-19T09:11:14;2.60;99.90
2190;DHT22;1101;51.056;7.262;2022-12-19T09:13:42;2.70;99.90
2190;DHT22;1101;51.056;7.262;2022-12-19T09:16:13;2.70;99.90
2190;DHT22;1101;51.056;7.262;2022-12-19T09:18:43;2.70;99.90
2190;DHT22;1101;51.056;7.262;2022-12-19T09:21:15;2.70;99.90
2190;DHT22;1101;51.056;7.262;2022-12-19T09:23:47;2.80;99.90
2190;DHT22;1101;51.056;7.262;2022-12-19T09:26:15;2.80;99.90
2190;DHT22;1101;51.056;7.262;2022-12-19T09:28:44;2.80;99.90
2190;DHT22;1101;51.056;7.262;2022-12-19T09:31:14;2.90;99.90
2190;DHT22;1101;51.056;7.262;2022-12-19T09:33:42;2.90;99.90
2190;DHT22;1101;51.056;7.262;2022-12-19T09:36:11;2.90;99.90
2190;DHT22;1101;51.056;7.262;2022-12-19T09:38:40;2.90;99.90
2190;DHT22;1101;51.056;7.262;2022-12-19T09:41:32;3.00;99.90
2190;DHT22;1101;51.056;7.262;2022-12-19T09:44:13;3.00;99.90
2190;DHT22;1101;51.056;7.262;2022-12-19T09:46:47;3.00;99.90
2190;DHT22;1101;51.056;7.262;2022-12-19T09:49:18;3.00;99.90
2190;DHT22;1101;51.056;7.262;2022-12-19T09:51:54;3.00;99.90
2190;DHT22;1101;51.056;7.262;2022-12-19T09:54:26;3.00;99.90
2190;DHT22;1101;51.056;7.262;2022-12-19T09:57:02;3.00;99.90
2190;DHT22;1101;51.056;7.262;2022-12-19T09:59:34;3.10;99.90
2190;DHT22;1101;51.056;7.262;2022-12-19T10:02:25;3.10;99.90
2190;DHT22;1101;51.056;7.262;2022-12-19T10:05:00;3.10;99.90
2190;DHT22;1101;51.056;7.262;2022-12-19T10:07:48;3.10;99.90
2190;DHT22;1101;51.056;7.262;2022-12-19T10:10:44;3.10;99.90
2190;DHT22;1101;51.056;7.262;2022-12-19T10:13:47;3.10;99.90
2190;DHT22;1101;51.056;7.262;2022-12-19T10:16:25;3.20;99.90
2190;DHT22;1101;51.056;7.262;2022-12-19T10:19:00;3.20;99.90
2190;DHT22;1101;51.056;7.262;2022-12-19T10:21:34;3.20;99.90
2190;DHT22;1101;51.056;7.262;2022-12-19T10:24:34;3.20;99.90
2190;DHT22;1101;51.056;7.262;2022-12-19T10:27:12;3.20;99.90
2190;DHT22;1101;51.056;7.262;2022-12-19T10:29:58;3.20;99.90
2190;DHT22;1101;51.056;7.262;2022-12-19T10:32:33;3.20;99.90
2190;DHT22;1101;51.056;7.262;2022-12-19T10:35:11;3.20;99.90
2190;DHT22;1101;51.056;7.262;2022-12-19T10:37:43;3.20;99.90
2190;DHT22;1101;51.056;7.262;2022-12-19T10:40:22;3.20;99.90
2190;DHT22;1101;51.056;7.262;2022-12-19T10:42:57;3.20;99.90
2190;DHT22;1101;51.056;7.262;2022-12-19T10:45:42;3.20;99.90
2190;DHT22;1101;51.056;7.262;2022-12-19T10:48:15;3.30;99.90
2190;DHT22;1101;51.056;7.262;2022-12-19T10:50:48;3.30;99.90
2190;DHT22;1101;51.056;7.262;2022-12-19T10:53:24;3.30;99.90
2190;DHT22;1101;51.056;7.262;2022-12-19T10:55:53;3.30;99.90
2190;DHT22;1101;51.056;7.262;2022-12-19T10:58:24;3.30;99.90
2190;DHT22;1101;51.056;7.262;2022-12-19T11:01:03;3.30;99.90
2190;DHT22;1101;51.056;7.262;2022-12-19T11:03:32;3.30;99.90
2190;DHT22;1101;51.056;7.262;2022-12-19T11:06:02;3.30;99.90
2190;DHT22;1101;51.056;7.262;2022-12-19T11:08:32;3.40;99.90
2190;DHT22;1101;51.056;7.262;2022-12-19T11:11:12;3.40;99.90
2190;DHT22;1101;51.056;7.262;2022-12-19T11:14:18;3.40;99.90
2190;DHT22;1101;51.056;7.262;2022-12-19T11:20:09;3.50;99.90
2190;DHT22;1101;51.056;7.262;2022-12-19T11:22:58;3.50;99.90
2190;DHT22;1101;51.056;7.262;2022-12-19T11:25:53;3.50;99.90
2190;DHT22;1101;51.056;7.262;2022-12-19T11:28:41;3.60;99.90
2190;DHT22;1101;51.056;7.262;2022-12-19T11:31:30;3.60;99.90
2190;DHT22;1101;51.056;7.262;2022-12-19T11:34:19;3.60;99.90
2190;DHT22;1101;51.056;7.262;2022-12-19T11:36:52;3.60;99.90
2190;DHT22;1101;51.056;7.262;2022-12-19T11:39:26;3.60;99.90
2190;DHT22;1101;51.056;7.262;2022-12-19T11:42:04;3.70;99.90
2190;DHT22;1101;51.056;7.262;2022-12-19T11:44:37;3.70;99.90
2190;DHT22;1101;51.056;7.262;2022-12-19T11:47:16;3.70;99.90
2190;DHT22;1101;51.056;7.262;2022-12-19T11:49:52;3.70;99.90
2190;DHT22;1101;51.056;7.262;2022-12-19T11:52:34;3.80;99.90
2190;DHT22;1101;51.056;7.262;2022-12-19T11:55:25;3.80;99.90
2190;DHT22;1101;51.056;7.262;2022-12-19T11:57:54;3.80;99.90
2190;DHT22;1101;51.056;7.262;2022-12-19T12:00:23;3.80;99.90
2190;DHT22;1101;51.056;7.262;2022-12-19T12:05:52;3.90;99.90
2190;DHT22;1101;51.056;7.262;2022-12-19T12:08:55;3.90;99.90
2190;DHT22;1101;51.056;7.262;2022-12-19T12:11:50;3.90;99.90
2190;DHT22;1101;51.056;7.262;2022-12-19T12:14:48;4.00;99.90
2190;DHT22;1101;51.056;7.262;2022-12-19T12:17:49;4.00;99.90
2190;DHT22;1101;51.056;7.262;2022-12-19T12:20:46;4.00;99.90
2190;DHT22;1101;51.056;7.262;2022-12-19T12:23:44;4.00;99.90
2190;DHT22;1101;51.056;7.262;2022-12-19T12:26:37;4.00;99.90
2190;DHT22;1101;51.056;7.262;2022-12-19T12:29:31;4.00;99.90
2190;DHT22;1101;51.056;7.262;2022-12-19T12:32:27;4.10;99.90
2190;DHT22;1101;51.056;7.262;2022-12-19T12:35:27;4.10;99.90
2190;DHT22;1101;51.056;7.262;2022-12-19T12:38:33;4.10;99.90
2190;DHT22;1101;51.056;7.262;2022-12-19T12:41:20;4.10;99.90
2190;DHT22;1101;51.056;7.262;2022-12-19T12:44:11;4.10;99.90
2190;DHT22;1101;51.056;7.262;2022-12-19T12:46:44;4.20;99.90
2190;DHT22;1101;51.056;7.262;2022-12-19T12:49:23;4.20;99.90
2190;DHT22;1101;51.056;7.262;2022-12-19T12:51:54;4.20;99.90
2190;DHT22;1101;51.056;7.262;2022-12-19T12:54:32;4.20;99.90
2190;DHT22;1101;51.056;7.262;2022-12-19T12:57:02;4.20;99.90
2190;DHT22;1101;51.056;7.262;2022-12-19T12:59:30;4.30;99.90
2190;DHT22;1101;51.056;7.262;2022-12-19T13:01:59;4.30;99.90
2190;DHT22;1101;51.056;7.262;2022-12-19T13:04:35;4.30;99.90
2190;DHT22;1101;51.056;7.262;2022-12-19T13:07:20;4.40;99.90
2190;DHT22;1101;51.056;7.262;2022-12-19T13:10:04;4.40;99.90
2190;DHT22;1101;51.056;7.262;2022-12-19T13:12:52;4.40;99.90
2190;DHT22;1101;51.056;7.262;2022-12-19T13:15:40;4.40;99.90
2190;DHT22;1101;51.056;7.262;2022-12-19T13:21:06;4.40;99.90
2190;DHT22;1101;51.056;7.262;2022-12-19T13:23:45;4.40;99.90
2190;DHT22;1101;51.056;7.262;2022-12-19T13:26:45;4.40;99.90
2190;DHT22;1101;51.056;7.262;2022-12-19T13:29:32;4.40;99.90
2190;DHT22;1101;51.056;7.262;2022-12-19T13:32:08;4.40;99.90
2190;DHT22;1101;51.056;7.262;2022-12-19T13:34:37;4.40;99.90
2190;DHT22;1101;51.056;7.262;2022-12-19T13:37:25;4.40;99.90
2190;DHT22;1101;51.056;7.262;2022-12-19T13:40:23;4.40;99.90
2190;DHT22;1101;51.056;7.262;2022-12-19T13:43:01;4.40;99.90
2190;DHT22;1101;51.056;7.262;2022-12-19T13:45:50;4.40;99.90
2190;DHT22;1101;51.056;7.262;2022-12-19T13:48:26;4.40;99.90
2190;DHT22;1101;51.056;7.262;2022-12-19T13:50:55;4.40;99.90
2190;DHT22;1101;51.056;7.262;2022-12-19T13:53:26;4.40;99.90
2190;DHT22;1101;51.056;7.262;2022-12-19T13:55:57;4.40;99.90
2190;DHT22;1101;51.056;7.262;2022-12-19T13:58:27;4.40;99.90
2190;DHT22;1101;51.056;7.262;2022-12-19T14:01:01;4.40;99.90
2190;DHT22;1101;51.056;7.262;2022-12-19T14:03:37;4.40;99.90
2190;DHT22;1101;51.056;7.262;2022-12-19T14:06:09;4.40;99.90
2190;DHT22;1101;51.056;7.262;2022-12-19T14:08:45;4.40;99.90
2190;DHT22;1101;51.056;7.262;2022-12-19T14:11:35;4.40;99.90
2190;DHT22;1101;51.056;7.262;2022-12-19T14:14:26;4.40;99.90
2190;DHT22;1101;51.056;7.262;2022-12-19T14:17:14;4.40;99.90
2190;DHT22;1101;51.056;7.262;2022-12-19T14:19:45;4.40;99.90
2190;DHT22;1101;51.056;7.262;2022-12-19T14:22:19;4.40;99.90
2190;DHT22;1101;51.056;7.262;2022-12-19T14:24:53;4.40;99.90
2190;DHT22;1101;51.056;7.262;2022-12-19T14:27:43;4.40;99.90
2190;DHT22;1101;51.056;7.262;2022-12-19T14:30:33;4.40;99.90
2190;DHT22;1101;51.056;7.262;2022-12-19T14:33:09;4.40;99.90
2190;DHT22;1101;51.056;7.262;2022-12-19T14:35:58;4.50;99.90
2190;DHT22;1101;51.056;7.262;2022-12-19T14:38:35;4.40;99.90
2190;DHT22;1101;51.056;7.262;2022-12-19T14:41:36;4.40;99.90
2190;DHT22;1101;51.056;7.262;2022-12-19T14:44:42;4.40;99.90
2190;DHT22;1101;51.056;7.262;2022-12-19T14:47:33;4.40;99.90
2190;DHT22;1101;51.056;7.262;2022-12-19T14:50:34;4.40;99.90
2190;DHT22;1101;51.056;7.262;2022-12-19T14:53:22;4.40;99.90
2190;DHT22;1101;51.056;7.262;2022-12-19T14:56:11;4.40;99.90
2190;DHT22;1101;51.056;7.262;2022-12-19T14:59:00;4.40;99.90
2190;DHT22;1101;51.056;7.262;2022-12-19T15:01:29;4.40;99.90
2190;DHT22;1101;51.056;7.262;2022-12-19T15:04:01;4.40;99.90
2190;DHT22;1101;51.056;7.262;2022-12-19T15:06:52;4.40;99.90
2190;DHT22;1101;51.056;7.262;2022-12-19T15:09:41;4.30;99.90
2190;DHT22;1101;51.056;7.262;2022-12-19T15:12:32;4.30;99.90
2190;DHT22;1101;51.056;7.262;2022-12-19T15:15:40;4.30;99.90
2190;DHT22;1101;51.056;7.262;2022-12-19T15:18:20;4.30;99.90
2190;DHT22;1101;51.056;7.262;2022-12-19T15:20:49;4.30;99.90
2190;DHT22;1101;51.056;7.262;2022-12-19T15:23:19;4.30;99.90
2190;DHT22;1101;51.056;7.262;2022-12-19T15:25:49;4.30;99.90
2190;DHT22;1101;51.056;7.262;2022-12-19T15:28:37;4.30;99.90
2190;DHT22;1101;51.056;7.262;2022-12-19T15:31:13;4.30;99.90
2190;DHT22;1101;51.056;7.262;2022-12-19T15:33:44;4.30;99.90
2190;DHT22;1101;51.056;7.262;2022-12-19T15:36:32;4.30;99.90
2190;DHT22;1101;51.056;7.262;2022-12-19T15:39:02;4.30;99.90
2190;DHT22;1101;51.056;7.262;2022-12-19T15:41:30;4.30;99.90
2190;DHT22;1101;51.056;7.262;2022-12-19T15:44:08;4.30;99.90
2190;DHT22;1101;51.056;7.262;2022-12-19T15:46:37;4.30;99.90
2190;DHT22;1101;51.056;7.262;2022-12-19T15:49:14;4.30;99.90
2190;DHT22;1101;51.056;7.262;2022-12-19T15:51:42;4.30;99.90
2190;DHT22;1101;51.056;7.262;2022-12-19T15:54:12;4.30;99.90
2190;DHT22;1101;51.056;7.262;2022-12-19T15:56:59;4.30;99.90
2190;DHT22;1101;51.056;7.262;2022-12-19T15:59:30;4.30;99.90
2190;DHT22;1101;51.056;7.262;2022-12-19T16:02:13;4.30;99.90
2190;DHT22;1101;51.056;7.262;2022-12-19T16:04:42;4.30;99.90
2190;DHT22;1101;51.056;7.262;2022-12-19T16:07:14;4.30;99.90
2190;DHT22;1101;51.056;7.262;2022-12-19T16:09:43;4.30;99.90
2190;DHT22;1101;51.056;7.262;2022-12-19T16:12:13;4.30;99.90
2190;DHT22;1101;51.056;7.262;2022-12-19T16:14:42;4.30;99.90
2190;DHT22;1101;51.056;7.262;2022-12-19T16:17:13;4.30;99.90
2190;DHT22;1101;51.056;7.262;2022-12-19T16:19:42;4.40;99.90
2190;DHT22;1101;51.056;7.262;2022-12-19T16:22:16;4.40;99.90
2190;DHT22;1101;51.056;7.262;2022-12-19T16:24:46;4.40;99.90
2190;DHT22;1101;51.056;7.262;2022-12-19T16:27:20;4.40;99.90
2190;DHT22;1101;51.056;7.262;2022-12-19T16:29:49;4.40;99.90
2190;DHT22;1101;51.056;7.262;2022-12-19T16:32:17;4.40;99.90
2190;DHT22;1101;51.056;7.262;2022-12-19T16:34:45;4.40;99.90
2190;DHT22;1101;51.056;7.262;2022-12-19T16:37:12;4.50;99.90
2190;DHT22;1101;51.056;7.262;2022-12-19T16:39:41;4.50;99.90
2190;DHT22;1101;51.056;7.262;2022-12-19T16:42:13;4.50;99.90
2190;DHT22;1101;51.056;7.262;2022-12-19T16:44:43;4.50;99.90
2190;DHT22;1101;51.056;7.262;2022-12-19T16:47:14;4.50;99.90
2190;DHT22;1101;51.056;7.262;2022-12-19T16:49:42;4.50;99.90
2190;DHT22;1101;51.056;7.262;2022-12-19T16:52:10;4.50;99.90
2190;DHT22;1101;51.056;7.262;2022-12-19T16:54:38;4.50;99.90
2190;DHT22;1101;51.056;7.262;2022-12-19T16:57:18;4.50;99.90
2190;DHT22;1101;51.056;7.262;2022-12-19T16:59:47;4.60;99.90
2190;DHT22;1101;51.056;7.262;2022-12-19T17:02:34;4.60;99.90
2190;DHT22;1101;51.056;7.262;2022-12-19T17:05:04;4.50;99.90
2190;DHT22;1101;51.056;7.262;2022-12-19T17:07:33;4.60;99.90
2190;DHT22;1101;51.056;7.262;2022-12-19T17:10:01;4.60;99.90
2190;DHT22;1101;51.056;7.262;2022-12-19T17:12:30;4.60;99.90
2190;DHT22;1101;51.056;7.262;2022-12-19T17:14:58;4.60;99.90
2190;DHT22;1101;51.056;7.262;2022-12-19T17:17:26;4.60;99.90
2190;DHT22;1101;51.056;7.262;2022-12-19T17:19:53;4.60;99.90